Terminal Aerodrome Forecast
Issued by NWS Jackson, MS

Home | Current Version | Previous Version | Text Only | Print | Product List | Glossary On
Versions: 1 2 3 4 5 6 7 8 9 10 11 12 13 14 15
274
FTUS44 KMEG 261131
TAFTUP
TAF
KTUP 261131Z 2612/2712 VRB04KT P6SM FEW050 SCT250
     FM261500 18005KT P6SM FEW030 SCT250
     FM261900 15007KT P6SM VCTS SCT050CB
     FM270000 13005KT P6SM FEW150 SCT250=

USA.gov is the U.S. government's official web portal to all federal, state and local government web resources and services.